Time;durP1;ratioP1;P1;durP2;ratioP2;P2;SDS_P1;SDS_P2;PMS_P1;PMS_P2;Temp;Humidity;BMP_temperature;BMP_pressure;BME280_temperature;BME280_humidity;BME280_pressure;Samples;Min_cycle;Max_cycle;Signal;HPM_P1;HPM_P2
2021/10/28 00:12:22;;;;;;;4.13;2.67;;;;;;;;;;5103175;28;20509;-66
2021/10/28 00:14:54;;;;;;;4.97;2.58;;;;;;;;;;5113458;28;20027;-67
2021/10/28 00:17:27;;;;;;;7.20;2.50;;;;;;;;;;5114411;28;20030;-66
2021/10/28 00:19:53;;;;;;;3.88;2.20;;;;;;;;;;5102513;28;20519;-67
2021/10/28 00:22:22;;;;;;;4.53;2.33;;;;;;;;;;5101538;28;20060;-66
2021/10/28 00:24:48;;;;;;;2.70;2.05;;;;;;;;;;5106139;28;20031;-66
2021/10/28 00:27:15;;;;;;;9.45;2.50;;;;;;;;;;5112103;28;20161;-66
2021/10/28 00:29:41;;;;;;;4.18;2.33;;;;;;;;;;5102660;28;20031;-67
2021/10/28 00:32:07;;;;;;;6.45;2.30;;;;;;;;;;5107661;28;20099;-66
2021/10/28 00:34:33;;;;;;;7.00;2.22;;;;;;;;;;5104353;28;20019;-66
2021/10/28 00:37:00;;;;;;;5.25;2.35;;;;;;;;;;5110204;28;20118;-67
2021/10/28 00:39:26;;;;;;;4.05;2.40;;;;;;;;;;5102200;28;20032;-67
2021/10/28 00:41:52;;;;;;;5.75;2.47;;;;;;;;;;5104210;28;20924;-66
2021/10/28 00:44:18;;;;;;;5.70;2.60;;;;;;;;;;5111718;28;20049;-67
2021/10/28 00:46:45;;;;;;;3.50;2.20;;;;;;;;;;5095566;28;20024;-67
2021/10/28 00:49:11;;;;;;;4.63;2.72;;;;;;;;;;5113720;28;20144;-66
2021/10/28 00:51:38;;;;;;;5.28;2.70;;;;;;;;;;5113149;28;20030;-66
2021/10/28 00:54:05;;;;;;;2.42;1.98;;;;;;;;;;5083584;28;20012;-66
2021/10/28 00:56:32;;;;;;;3.38;2.38;;;;;;;;;;5102635;28;20024;-66
2021/10/28 00:59:00;;;;;;;5.00;2.47;;;;;;;;;;5104008;28;20041;-67
2021/10/28 01:01:26;;;;;;;4.30;2.38;;;;;;;;;;5107649;28;20439;-68
2021/10/28 01:03:52;;;;;;;6.05;2.42;;;;;;;;;;5103053;28;20475;-67
2021/10/28 01:06:18;;;;;;;5.32;2.20;;;;;;;;;;5112000;28;20020;-66
2021/10/28 01:08:45;;;;;;;5.70;2.45;;;;;;;;;;5113428;28;20099;-67
2021/10/28 01:11:12;;;;;;;3.28;2.53;;;;;;;;;;5113612;28;20385;-67
2021/10/28 01:13:38;;;;;;;3.67;2.47;;;;;;;;;;5109905;28;20020;-66
2021/10/28 01:16:06;;;;;;;3.42;2.38;;;;;;;;;;5112495;28;20020;-66
2021/10/28 01:18:35;;;;;;;5.38;2.25;;;;;;;;;;5105555;28;20023;-66
2021/10/28 01:21:01;;;;;;;5.68;2.60;;;;;;;;;;5104646;28;20066;-67
2021/10/28 01:23:27;;;;;;;4.13;2.58;;;;;;;;;;5112451;28;20493;-66
2021/10/28 01:25:55;;;;;;;7.78;2.60;;;;;;;;;;5097622;28;20032;-66
2021/10/28 01:28:22;;;;;;;3.65;2.20;;;;;;;;;;5101225;28;20086;-66
2021/10/28 01:30:49;;;;;;;4.72;2.40;;;;;;;;;;5109434;28;20110;-66
2021/10/28 01:33:16;;;;;;;3.00;2.40;;;;;;;;;;5104826;28;20444;-66
2021/10/28 01:35:43;;;;;;;3.65;2.58;;;;;;;;;;5104974;28;20360;-66
2021/10/28 01:38:10;;;;;;;4.95;2.40;;;;;;;;;;5096566;28;20694;-67
2021/10/28 01:40:37;;;;;;;6.30;2.55;;;;;;;;;;5113345;28;20111;-66
2021/10/28 01:43:03;;;;;;;5.43;2.60;;;;;;;;;;5104931;28;20386;-66
2021/10/28 01:45:29;;;;;;;6.90;2.58;;;;;;;;;;5100175;28;20031;-67
2021/10/28 01:47:55;;;;;;;6.38;2.40;;;;;;;;;;5108629;28;20035;-67
2021/10/28 01:50:21;;;;;;;8.45;2.42;;;;;;;;;;5102821;28;20051;-67
2021/10/28 01:52:47;;;;;;;11.45;2.50;;;;;;;;;;5107133;28;20059;-66
2021/10/28 01:55:13;;;;;;;5.45;2.58;;;;;;;;;;5104375;28;20028;-67
2021/10/28 01:57:40;;;;;;;5.43;2.33;;;;;;;;;;5105394;28;20028;-67
2021/10/28 02:00:17;;;;;;;13.05;2.75;;;;;;;;;;5104271;28;20028;-66
2021/10/28 02:02:45;;;;;;;5.35;2.70;;;;;;;;;;5100571;28;20016;-66
2021/10/28 02:05:12;;;;;;;9.30;2.40;;;;;;;;;;5109532;28;20470;-67
2021/10/28 02:07:38;;;;;;;7.22;2.50;;;;;;;;;;5110965;28;20055;-67
2021/10/28 02:10:05;;;;;;;5.47;2.63;;;;;;;;;;5105169;28;20059;-66
2021/10/28 02:12:32;;;;;;;7.05;2.70;;;;;;;;;;5116313;28;20096;-67
2021/10/28 02:14:57;;;;;;;7.13;2.33;;;;;;;;;;5116678;28;20044;-66
2021/10/28 02:17:23;;;;;;;5.55;2.90;;;;;;;;;;5108385;28;20024;-67
2021/10/28 02:19:49;;;;;;;6.82;2.95;;;;;;;;;;5103801;28;20039;-67
2021/10/28 02:22:15;;;;;;;5.88;2.63;;;;;;;;;;5105017;28;20024;-67
2021/10/28 02:24:42;;;;;;;6.32;2.45;;;;;;;;;;5105078;28;20028;-67
2021/10/28 02:27:07;;;;;;;7.95;2.42;;;;;;;;;;5100200;28;20019;-67
2021/10/28 02:29:33;;;;;;;10.25;3.05;;;;;;;;;;5094675;28;20028;-66
2021/10/28 02:32:00;;;;;;;3.10;2.50;;;;;;;;;;5105122;28;20028;-67
2021/10/28 02:34:26;;;;;;;5.10;2.63;;;;;;;;;;5103912;28;20057;-67
2021/10/28 02:36:52;;;;;;;8.43;2.50;;;;;;;;;;5077700;28;20036;-67
2021/10/28 02:39:18;;;;;;;7.07;2.58;;;;;;;;;;5076476;28;20036;-67
2021/10/28 02:41:45;;;;;;;6.75;2.72;;;;;;;;;;5093925;28;20043;-67
2021/10/28 02:44:11;;;;;;;4.70;2.53;;;;;;;;;;5090167;28;20033;-67
2021/10/28 02:46:39;;;;;;;5.88;2.60;;;;;;;;;;5085508;28;20095;-66
2021/10/28 02:49:11;;;;;;;12.68;3.63;;;;;;;;;;5095984;28;20099;-66
2021/10/28 02:51:37;;;;;;;10.43;2.53;;;;;;;;;;5087006;28;20567;-66
2021/10/28 02:54:03;;;;;;;9.48;2.70;;;;;;;;;;5084891;28;20024;-67
2021/10/28 02:56:29;;;;;;;2.75;2.22;;;;;;;;;;5091057;28;20020;-66
2021/10/28 02:58:55;;;;;;;6.70;2.35;;;;;;;;;;5076334;28;20072;-65
2021/10/28 03:01:22;;;;;;;4.30;2.70;;;;;;;;;;5090210;28;20024;-66
2021/10/28 03:03:48;;;;;;;8.85;2.60;;;;;;;;;;5101339;28;20043;-67
2021/10/28 03:06:14;;;;;;;15.10;2.63;;;;;;;;;;5084073;28;20021;-66
2021/10/28 03:08:41;;;;;;;15.98;2.60;;;;;;;;;;5092427;28;20138;-66
2021/10/28 03:11:08;;;;;;;10.32;2.55;;;;;;;;;;5095772;28;20028;-66
2021/10/28 03:13:35;;;;;;;9.13;2.65;;;;;;;;;;5087710;28;20031;-66
2021/10/28 03:16:12;;;;;;;11.05;2.78;;;;;;;;;;5083790;28;20032;-67
2021/10/28 03:26:53;;;;;;;4.85;2.50;;;;;;;;;;5086530;28;20031;-67
2021/10/28 03:29:19;;;;;;;11.07;2.63;;;;;;;;;;5095373;28;20040;-67
2021/10/28 03:31:46;;;;;;;5.05;2.25;;;;;;;;;;5102740;28;20024;-67
2021/10/28 03:34:12;;;;;;;5.72;2.50;;;;;;;;;;5091419;28;20020;-67
2021/10/28 03:42:28;;;;;;;7.43;2.40;;;;;;;;;;5091967;28;20028;-68
2021/10/28 04:06:44;;;;;;;15.03;3.67;;;;;;;;;;5077604;28;20055;-66
2021/10/28 04:08:57;;;;;;;19.02;3.15;;;;;;;;;;5073818;28;20289;-66
2021/10/28 04:19:34;;;;;;;12.75;3.22;;;;;;;;;;5090698;28;20383;-66
2021/10/28 04:30:01;;;;;;;13.23;2.95;;;;;;;;;;5106327;28;20078;-66
2021/10/28 04:32:28;;;;;;;11.55;3.35;;;;;;;;;;5104677;28;20047;-66
2021/10/28 04:34:54;;;;;;;11.27;3.40;;;;;;;;;;5098985;28;20117;-65
2021/10/28 04:37:20;;;;;;;15.07;3.20;;;;;;;;;;5110633;28;20026;-66
2021/10/28 04:39:47;;;;;;;9.25;3.08;;;;;;;;;;5102410;28;20032;-66
2021/10/28 04:42:13;;;;;;;7.25;3.08;;;;;;;;;;5102180;28;20012;-66
2021/10/28 04:44:40;;;;;;;6.45;2.83;;;;;;;;;;5100874;28;20055;-65
2021/10/28 04:47:06;;;;;;;11.45;3.03;;;;;;;;;;5107914;28;20020;-66
2021/10/28 04:49:32;;;;;;;10.23;3.17;;;;;;;;;;5112414;28;20374;-66
2021/10/28 04:51:59;;;;;;;10.90;3.00;;;;;;;;;;5113965;28;20477;-66
2021/10/28 04:54:25;;;;;;;5.28;2.65;;;;;;;;;;5104762;28;20028;-65
2021/10/28 04:56:51;;;;;;;10.57;3.40;;;;;;;;;;5113679;28;20108;-66
2021/10/28 04:59:17;;;;;;;11.05;3.03;;;;;;;;;;5096023;28;20406;-66
2021/10/28 05:01:43;;;;;;;8.07;3.15;;;;;;;;;;5098214;28;20012;-66
2021/10/28 05:04:09;;;;;;;9.13;2.85;;;;;;;;;;5101121;28;20085;-65
2021/10/28 05:06:36;;;;;;;8.50;3.15;;;;;;;;;;5104935;28;20026;-65
2021/10/28 05:09:03;;;;;;;12.18;2.65;;;;;;;;;;5106582;28;20036;-66
2021/10/28 05:11:29;;;;;;;11.07;2.53;;;;;;;;;;5102581;28;20021;-65
2021/10/28 05:13:55;;;;;;;7.90;2.45;;;;;;;;;;5104907;28;20035;-66
2021/10/28 05:16:22;;;;;;;5.05;2.45;;;;;;;;;;5103917;28;20157;-66
2021/10/28 05:18:48;;;;;;;7.38;2.70;;;;;;;;;;5105792;28;20032;-66
2021/10/28 05:21:15;;;;;;;5.65;2.70;;;;;;;;;;5103168;28;20027;-66
2021/10/28 05:23:42;;;;;;;3.95;2.50;;;;;;;;;;5110941;28;20062;-66
2021/10/28 05:26:09;;;;;;;5.82;2.58;;;;;;;;;;5106184;28;20024;-66
2021/10/28 05:28:35;;;;;;;9.50;2.83;;;;;;;;;;5108197;28;20130;-65
2021/10/28 05:31:02;;;;;;;17.02;3.08;;;;;;;;;;5091763;28;20032;-65
2021/10/28 05:33:28;;;;;;;10.85;2.90;;;;;;;;;;5110179;28;20054;-65
2021/10/28 05:35:54;;;;;;;11.00;2.92;;;;;;;;;;5103758;28;20027;-65
2021/10/28 05:38:20;;;;;;;8.88;2.13;;;;;;;;;;5109436;28;20028;-65
2021/10/28 05:40:46;;;;;;;18.05;3.42;;;;;;;;;;5101506;28;20052;-66
2021/10/28 05:43:12;;;;;;;14.57;2.63;;;;;;;;;;5106700;28;20051;-66
2021/10/28 05:45:39;;;;;;;11.20;3.10;;;;;;;;;;5107705;28;20024;-67
2021/10/28 05:48:05;;;;;;;14.45;3.53;;;;;;;;;;5111831;28;20475;-67
2021/10/28 05:50:32;;;;;;;8.07;3.53;;;;;;;;;;5104346;28;20036;-66
2021/10/28 05:52:59;;;;;;;12.13;3.55;;;;;;;;;;5112833;28;20036;-67
2021/10/28 05:55:26;;;;;;;9.13;3.70;;;;;;;;;;5107261;28;20069;-66
2021/10/28 05:57:53;;;;;;;9.23;3.78;;;;;;;;;;5114249;28;20082;-66
2021/10/28 06:00:19;;;;;;;9.23;3.75;;;;;;;;;;5104505;28;20030;-66
2021/10/28 06:02:45;;;;;;;5.70;3.67;;;;;;;;;;5114399;28;20339;-66
2021/10/28 06:05:11;;;;;;;5.88;3.60;;;;;;;;;;5102411;28;20474;-66
2021/10/28 06:07:38;;;;;;;5.40;3.60;;;;;;;;;;5108470;28;20023;-67
2021/10/28 06:10:05;;;;;;;11.02;3.50;;;;;;;;;;5102071;28;20063;-66
2021/10/28 06:12:37;;;;;;;8.13;3.50;;;;;;;;;;5113631;28;20107;-67
2021/10/28 06:15:04;;;;;;;18.45;3.97;;;;;;;;;;5107014;28;20016;-67
2021/10/28 06:17:33;;;;;;;12.15;3.92;;;;;;;;;;5108532;28;20102;-67
2021/10/28 06:20:00;;;;;;;6.07;3.90;;;;;;;;;;5105632;28;20081;-66
2021/10/28 06:22:29;;;;;;;7.10;3.83;;;;;;;;;;5105199;28;20106;-65
2021/10/28 06:24:56;;;;;;;32.28;5.57;;;;;;;;;;5109070;28;20028;-65
2021/10/28 06:27:22;;;;;;;16.80;3.78;;;;;;;;;;5112502;28;20043;-66
2021/10/28 06:29:48;;;;;;;25.27;4.10;;;;;;;;;;5114202;28;20035;-66
2021/10/28 06:32:15;;;;;;;19.48;4.47;;;;;;;;;;5096728;28;20016;-67
2021/10/28 06:34:46;;;;;;;16.23;4.65;;;;;;;;;;5104887;28;20102;-66
2021/10/28 06:37:12;;;;;;;16.27;4.68;;;;;;;;;;5109390;28;20043;-67
2021/10/28 06:39:38;;;;;;;20.30;4.03;;;;;;;;;;5116608;28;20395;-67
2021/10/28 06:42:05;;;;;;;19.90;4.65;;;;;;;;;;5096772;28;20016;-66
2021/10/28 06:44:31;;;;;;;21.80;4.80;;;;;;;;;;5098597;28;20097;-67
2021/10/28 06:46:58;;;;;;;21.70;4.20;;;;;;;;;;5109895;28;20045;-65
2021/10/28 06:49:24;;;;;;;17.17;3.90;;;;;;;;;;5108651;28;20030;-65
2021/10/28 06:51:51;;;;;;;12.05;4.13;;;;;;;;;;5099183;28;20020;-65
2021/10/28 06:54:25;;;;;;;17.58;4.18;;;;;;;;;;5109830;28;20356;-68
2021/10/28 07:04:47;;;;;;;26.47;4.07;;;;;;;;;;5107787;28;20084;-66
2021/10/28 07:07:13;;;;;;;23.95;4.15;;;;;;;;;;5111623;28;20680;-65
2021/10/28 07:09:43;;;;;;;18.27;4.10;;;;;;;;;;5102879;28;20095;-66
2021/10/28 07:12:21;;;;;;;15.70;3.67;;;;;;;;;;5109836;28;20043;-66
2021/10/28 07:14:53;;;;;;;10.10;3.75;;;;;;;;;;5105242;28;20069;-66
2021/10/28 07:17:31;;;;;;;15.75;4.63;;;;;;;;;;5110216;28;20438;-66
2021/10/28 07:22:56;;;;;;;10.18;3.30;;;;;;;;;;5108046;28;20425;-66
2021/10/28 07:28:19;;;;;;;11.27;3.90;;;;;;;;;;5107440;28;20067;-66
2021/10/28 08:21:44;;;;;;;18.33;3.40;;;;;;;;;;5083837;28;20075;-65
2021/10/28 08:24:31;;;;;;;21.03;3.17;;;;;;;;;;5101682;28;20027;-64
2021/10/28 08:29:54;;;;;;;18.95;3.45;;;;;;;;;;5078515;28;20058;-67
2021/10/28 08:32:20;;;;;;;11.90;3.20;;;;;;;;;;5086943;28;20449;-65
2021/10/28 08:34:49;;;;;;;15.00;3.28;;;;;;;;;;5080686;28;20096;-65
2021/10/28 08:37:17;;;;;;;14.73;3.58;;;;;;;;;;5082186;28;20070;-63
2021/10/28 08:39:44;;;;;;;11.20;3.28;;;;;;;;;;5084104;28;20056;-64
2021/10/28 08:42:11;;;;;;;18.88;3.40;;;;;;;;;;5091194;28;20020;-65
2021/10/28 08:44:40;;;;;;;17.33;3.35;;;;;;;;;;5094345;28;20020;-64
2021/10/28 08:47:10;;;;;;;18.75;3.22;;;;;;;;;;5093530;28;20084;-64
2021/10/28 08:49:42;;;;;;;17.08;3.28;;;;;;;;;;5092914;28;20028;-65
2021/10/28 09:24:38;;;;;;;12.93;3.22;;;;;;;;;;5093599;28;20043;-65
2021/10/28 09:29:56;;;;;;;7.60;2.53;;;;;;;;;;5114231;28;20139;-65
2021/10/28 09:51:33;;;;;;;12.85;2.63;;;;;;;;;;5109697;28;20076;-65
2021/10/28 09:59:27;;;;;;;6.22;2.65;;;;;;;;;;5104759;28;19976;-63
2021/10/28 10:04:36;;;;;;;9.25;3.30;;;;;;;;;;5113116;28;20074;-63
2021/10/28 10:07:04;;;;;;;6.97;3.08;;;;;;;;;;5103842;28;20491;-64
2021/10/28 10:09:33;;;;;;;8.85;2.75;;;;;;;;;;5097966;28;20414;-64
2021/10/28 10:11:59;;;;;;;9.88;3.17;;;;;;;;;;5103038;28;20039;-65
2021/10/28 10:14:25;;;;;;;5.07;2.70;;;;;;;;;;5104774;28;20024;-65
2021/10/28 10:16:51;;;;;;;6.60;2.72;;;;;;;;;;5104458;28;20019;-65
2021/10/28 10:19:19;;;;;;;6.68;3.08;;;;;;;;;;5104686;28;20035;-65
2021/10/28 10:21:50;;;;;;;5.65;2.65;;;;;;;;;;5105796;28;20024;-64
2021/10/28 12:43:50;;;;;;;9.57;4.00;;;;;;;;;;5110273;28;20034;-68
2021/10/28 12:49:28;;;;;;;8.05;3.70;;;;;;;;;;5108810;28;20066;-67
2021/10/28 12:52:11;;;;;;;27.63;4.00;;;;;;;;;;5100034;28;20097;-66
2021/10/28 13:49:56;;;;;;;11.45;4.70;;;;;;;;;;5101886;28;20039;-63
2021/10/28 13:55:13;;;;;;;24.58;4.50;;;;;;;;;;5098749;28;20043;-64
2021/10/28 14:39:04;;;;;;;26.30;4.88;;;;;;;;;;5108371;28;20035;-67
2021/10/28 15:30:26;;;;;;;36.55;7.13;;;;;;;;;;5107994;28;20450;-66
2021/10/28 15:35:40;;;;;;;24.52;5.28;;;;;;;;;;5104838;28;20047;-67
2021/10/28 15:38:18;;;;;;;22.55;5.22;;;;;;;;;;5089151;28;20024;-63
2021/10/28 15:41:13;;;;;;;24.73;5.20;;;;;;;;;;5102337;28;20378;-65
2021/10/28 15:57:09;;;;;;;17.05;5.00;;;;;;;;;;5102310;28;20069;-65
2021/10/28 15:59:50;;;;;;;22.15;5.03;;;;;;;;;;5107031;28;20120;-65
2021/10/28 16:24:09;;;;;;;269.80;116.43;;;;;;;;;;5108273;28;20530;-67
2021/10/28 16:26:36;;;;;;;280.88;123.47;;;;;;;;;;5109423;28;20020;-67
2021/10/28 16:29:06;;;;;;;302.80;131.10;;;;;;;;;;5102842;28;20044;-65
2021/10/28 16:31:32;;;;;;;298.60;134.02;;;;;;;;;;5102521;28;20031;-66
2021/10/28 16:33:59;;;;;;;307.15;139.90;;;;;;;;;;5105676;28;20024;-67
2021/10/28 16:36:26;;;;;;;320.05;143.23;;;;;;;;;;5097640;28;20020;-66
2021/10/28 16:38:52;;;;;;;315.20;142.98;;;;;;;;;;5102357;28;20115;-66
2021/10/28 16:41:19;;;;;;;319.67;141.13;;;;;;;;;;5109170;28;20378;-66
2021/10/28 16:43:45;;;;;;;305.60;137.45;;;;;;;;;;5103617;28;20425;-66
2021/10/28 16:46:12;;;;;;;309.45;136.57;;;;;;;;;;5104547;28;20023;-68
2021/10/28 16:48:39;;;;;;;280.00;129.07;;;;;;;;;;5100155;28;20027;-65
2021/10/28 16:51:07;;;;;;;288.60;128.63;;;;;;;;;;5103478;28;20493;-67
2021/10/28 16:53:34;;;;;;;267.98;120.80;;;;;;;;;;5108456;28;20028;-66
2021/10/28 16:56:01;;;;;;;267.52;118.32;;;;;;;;;;5105337;28;20076;-67
2021/10/28 16:58:28;;;;;;;245.30;110.38;;;;;;;;;;5107801;28;20064;-68
2021/10/28 17:00:54;;;;;;;233.98;104.25;;;;;;;;;;5113141;28;20031;-66
2021/10/28 17:03:20;;;;;;;239.65;103.00;;;;;;;;;;5105805;28;20454;-68
2021/10/28 17:05:48;;;;;;;223.65;98.68;;;;;;;;;;5108025;28;20381;-65
2021/10/28 17:08:14;;;;;;;224.10;94.57;;;;;;;;;;5105985;28;20023;-65
2021/10/28 17:10:41;;;;;;;208.38;88.65;;;;;;;;;;5101802;28;20023;-66
2021/10/28 17:13:07;;;;;;;210.48;81.63;;;;;;;;;;5103460;28;20111;-65
2021/10/28 17:15:33;;;;;;;189.00;77.25;;;;;;;;;;5106296;28;20449;-64
2021/10/28 17:17:59;;;;;;;174.30;75.00;;;;;;;;;;5106127;28;20107;-63
2021/10/28 17:20:27;;;;;;;181.98;70.03;;;;;;;;;;5102384;28;20181;-66
2021/10/28 17:22:55;;;;;;;173.00;68.68;;;;;;;;;;5104261;28;20027;-65
2021/10/28 17:25:21;;;;;;;163.43;62.03;;;;;;;;;;5106610;28;20023;-64
2021/10/28 17:27:48;;;;;;;166.77;63.03;;;;;;;;;;5106631;28;20039;-64
2021/10/28 17:30:15;;;;;;;167.25;57.38;;;;;;;;;;5106631;28;20031;-66
2021/10/28 17:32:44;;;;;;;155.10;53.75;;;;;;;;;;5103166;28;20008;-65
2021/10/28 17:35:11;;;;;;;215.27;57.38;;;;;;;;;;5106762;28;20015;-66
2021/10/28 17:37:37;;;;;;;198.48;54.08;;;;;;;;;;5106307;28;20015;-66
2021/10/28 17:40:04;;;;;;;225.90;54.45;;;;;;;;;;5103023;28;20039;-69
2021/10/28 17:42:30;;;;;;;238.88;53.08;;;;;;;;;;5104167;28;20043;-68
2021/10/28 17:44:57;;;;;;;202.02;51.75;;;;;;;;;;5101604;28;20028;-67
2021/10/28 17:47:27;;;;;;;204.45;50.35;;;;;;;;;;5100424;28;20015;-70
2021/10/28 17:49:55;;;;;;;182.52;47.03;;;;;;;;;;5105684;28;20348;-69
2021/10/28 17:52:21;;;;;;;167.45;46.47;;;;;;;;;;5104732;28;20020;-68
2021/10/28 17:54:47;;;;;;;192.02;45.95;;;;;;;;;;5108380;28;20023;-68
2021/10/28 17:57:14;;;;;;;196.32;49.55;;;;;;;;;;5102952;28;20020;-70
2021/10/28 17:59:42;;;;;;;164.55;43.97;;;;;;;;;;5104186;28;20066;-68
2021/10/28 18:02:08;;;;;;;167.48;44.25;;;;;;;;;;5104933;28;20012;-68
2021/10/28 18:04:35;;;;;;;157.55;43.85;;;;;;;;;;5097098;28;20024;-67
2021/10/28 18:07:01;;;;;;;154.57;44.05;;;;;;;;;;5098858;28;20016;-68
2021/10/28 18:09:28;;;;;;;142.63;41.00;;;;;;;;;;5102346;28;20355;-67
2021/10/28 18:11:55;;;;;;;132.18;40.33;;;;;;;;;;5104332;28;20499;-67
2021/10/28 18:14:23;;;;;;;146.40;40.05;;;;;;;;;;5101396;28;20111;-69
2021/10/28 18:16:52;;;;;;;126.63;40.38;;;;;;;;;;5103361;28;20047;-68
2021/10/28 18:19:18;;;;;;;130.18;39.47;;;;;;;;;;5104274;28;20028;-68
2021/10/28 18:21:47;;;;;;;127.93;39.53;;;;;;;;;;5085091;28;20020;-68
2021/10/28 18:24:14;;;;;;;124.05;37.97;;;;;;;;;;5101587;28;20024;-68
2021/10/28 18:26:40;;;;;;;128.93;35.33;;;;;;;;;;5101407;28;20049;-69
2021/10/28 18:29:06;;;;;;;108.55;36.20;;;;;;;;;;5105257;28;20044;-69
2021/10/28 18:31:32;;;;;;;101.88;34.83;;;;;;;;;;5102933;28;20027;-69
2021/10/28 18:33:59;;;;;;;108.28;33.95;;;;;;;;;;5105147;28;20392;-69
2021/10/28 18:36:33;;;;;;;131.27;33.05;;;;;;;;;;5103533;28;20016;-69
2021/10/28 18:38:59;;;;;;;109.78;32.60;;;;;;;;;;5103218;28;20542;-68
2021/10/28 18:41:26;;;;;;;92.97;31.35;;;;;;;;;;5105278;28;20088;-69
2021/10/28 18:43:52;;;;;;;94.20;30.52;;;;;;;;;;5107325;28;20028;-70
2021/10/28 18:46:23;;;;;;;118.43;31.77;;;;;;;;;;5105304;28;20023;-69
2021/10/28 18:48:59;;;;;;;105.07;32.38;;;;;;;;;;5103627;28;20016;-69
2021/10/28 18:51:26;;;;;;;99.78;29.15;;;;;;;;;;5105885;28;20024;-70
2021/10/28 18:53:52;;;;;;;85.28;28.15;;;;;;;;;;5107426;28;20107;-69
2021/10/28 18:56:18;;;;;;;96.78;28.17;;;;;;;;;;5104079;28;20039;-70
2021/10/28 18:58:45;;;;;;;88.28;26.55;;;;;;;;;;5108074;28;20036;-69
2021/10/28 19:01:12;;;;;;;81.57;27.70;;;;;;;;;;5107249;28;20019;-70
2021/10/28 19:03:41;;;;;;;98.05;27.25;;;;;;;;;;5106772;28;20056;-70
2021/10/28 19:06:08;;;;;;;78.88;25.83;;;;;;;;;;5111322;28;20023;-70
2021/10/28 19:08:36;;;;;;;80.95;25.60;;;;;;;;;;5100004;28;20081;-70
2021/10/28 19:11:03;;;;;;;79.13;26.63;;;;;;;;;;5112311;28;20042;-70
2021/10/28 19:13:30;;;;;;;73.97;25.73;;;;;;;;;;5108086;28;20065;-70
2021/10/28 19:15:56;;;;;;;74.70;24.38;;;;;;;;;;5107777;28;20023;-70
2021/10/28 19:18:22;;;;;;;63.35;24.65;;;;;;;;;;5109839;28;20114;-71
2021/10/28 19:20:54;;;;;;;68.75;25.38;;;;;;;;;;5107369;28;20028;-70
2021/10/28 19:23:22;;;;;;;67.15;23.55;;;;;;;;;;5106244;28;20418;-71
2021/10/28 19:25:48;;;;;;;59.70;23.75;;;;;;;;;;5107714;28;20027;-71
2021/10/28 19:28:15;;;;;;;62.55;22.92;;;;;;;;;;5106674;28;20036;-70
2021/10/28 19:30:47;;;;;;;65.43;23.90;;;;;;;;;;5102741;28;20528;-70
2021/10/28 19:33:20;;;;;;;51.08;21.95;;;;;;;;;;5101880;28;20027;-70
2021/10/28 19:35:54;;;;;;;57.40;21.17;;;;;;;;;;5114102;28;20020;-70
2021/10/28 19:41:09;;;;;;;57.28;22.10;;;;;;;;;;5110778;28;20055;-70
2021/10/28 19:46:21;;;;;;;55.65;20.80;;;;;;;;;;5104762;28;20027;-69
2021/10/28 19:48:47;;;;;;;56.25;20.70;;;;;;;;;;5098817;28;20383;-70
2021/10/28 19:51:14;;;;;;;54.88;20.35;;;;;;;;;;5108616;28;20383;-69
2021/10/28 19:53:41;;;;;;;68.13;21.52;;;;;;;;;;5107291;28;20034;-68
2021/10/28 19:56:09;;;;;;;61.10;20.35;;;;;;;;;;5102675;28;20019;-68
2021/10/28 19:58:37;;;;;;;51.95;20.17;;;;;;;;;;5111835;28;20027;-67
2021/10/28 20:01:12;;;;;;;42.50;18.85;;;;;;;;;;5106756;28;20070;-67
2021/10/28 20:14:26;;;;;;;47.33;18.98;;;;;;;;;;5104431;28;20043;-68
2021/10/28 20:22:19;;;;;;;40.33;17.38;;;;;;;;;;5103078;28;20040;-68
2021/10/28 20:24:45;;;;;;;44.90;17.35;;;;;;;;;;5087082;28;20562;-67
2021/10/28 20:27:11;;;;;;;38.67;17.52;;;;;;;;;;5105074;28;20047;-66
2021/10/28 20:29:37;;;;;;;39.30;17.30;;;;;;;;;;5106775;28;20067;-67
2021/10/28 20:32:03;;;;;;;43.05;16.65;;;;;;;;;;5106276;28;20099;-67
2021/10/28 20:34:36;;;;;;;39.28;16.58;;;;;;;;;;5101002;28;20027;-67
2021/10/28 20:37:09;;;;;;;40.45;15.85;;;;;;;;;;5106241;28;20020;-68
2021/10/28 20:39:39;;;;;;;34.00;15.90;;;;;;;;;;5114463;28;20059;-69
2021/10/28 20:42:06;;;;;;;37.33;15.38;;;;;;;;;;5106272;28;20389;-68
2021/10/28 20:44:32;;;;;;;43.70;16.63;;;;;;;;;;5104725;28;20020;-70
2021/10/28 20:46:58;;;;;;;35.08;13.77;;;;;;;;;;5101916;28;20027;-70
2021/10/28 20:49:24;;;;;;;37.13;14.65;;;;;;;;;;5101840;28;20023;-69
2021/10/28 20:51:51;;;;;;;33.28;14.75;;;;;;;;;;5103221;28;20428;-70
2021/10/28 20:54:17;;;;;;;32.67;13.95;;;;;;;;;;5106308;28;20033;-71
2021/10/28 20:56:43;;;;;;;38.20;13.73;;;;;;;;;;5105579;28;20020;-68
2021/10/28 20:59:09;;;;;;;31.38;13.73;;;;;;;;;;5101986;28;20116;-68
2021/10/28 21:01:35;;;;;;;45.88;15.18;;;;;;;;;;5103566;28;20047;-68
2021/10/28 21:04:01;;;;;;;37.17;13.65;;;;;;;;;;5104854;28;20035;-68
2021/10/28 21:06:28;;;;;;;33.95;13.95;;;;;;;;;;5103758;28;20016;-67
2021/10/28 21:08:57;;;;;;;35.47;12.23;;;;;;;;;;5109745;28;20042;-68
2021/10/28 21:11:23;;;;;;;38.05;12.45;;;;;;;;;;5104056;28;20146;-68
2021/10/28 21:13:50;;;;;;;28.10;11.38;;;;;;;;;;5106840;28;20144;-68
2021/10/28 21:16:16;;;;;;;32.20;12.80;;;;;;;;;;5106750;28;20104;-68
2021/10/28 21:18:42;;;;;;;25.55;12.65;;;;;;;;;;5105165;28;20024;-67
2021/10/28 21:21:08;;;;;;;43.38;12.88;;;;;;;;;;5103759;28;20114;-68
2021/10/28 21:23:34;;;;;;;29.13;12.02;;;;;;;;;;5103842;28;20012;-68
2021/10/28 21:26:01;;;;;;;32.05;12.82;;;;;;;;;;5108352;28;20024;-68
2021/10/28 21:28:27;;;;;;;32.72;12.02;;;;;;;;;;5105524;28;20047;-67
2021/10/28 21:30:53;;;;;;;34.60;12.13;;;;;;;;;;5102600;28;20110;-68
2021/10/28 21:33:19;;;;;;;36.47;11.93;;;;;;;;;;5104608;28;20032;-68
2021/10/28 21:35:45;;;;;;;34.92;11.57;;;;;;;;;;5105865;28;20028;-68
2021/10/28 21:38:12;;;;;;;28.58;11.15;;;;;;;;;;5105629;28;20031;-68
2021/10/28 21:40:38;;;;;;;27.80;10.55;;;;;;;;;;5100171;28;20524;-68
2021/10/28 21:43:04;;;;;;;24.00;10.45;;;;;;;;;;5099593;28;20024;-68
2021/10/28 21:45:31;;;;;;;24.83;10.90;;;;;;;;;;5101974;28;20023;-68
2021/10/28 21:47:57;;;;;;;21.00;10.80;;;;;;;;;;5101869;28;20024;-67
2021/10/28 21:50:24;;;;;;;29.05;10.70;;;;;;;;;;5102226;28;20498;-68
2021/10/28 21:52:55;;;;;;;21.75;10.48;;;;;;;;;;5105866;28;20031;-68
2021/10/28 21:55:33;;;;;;;28.25;10.32;;;;;;;;;;5100038;28;20023;-67
2021/10/28 21:58:13;;;;;;;21.80;9.75;;;;;;;;;;5106845;28;20051;-67
2021/10/28 22:24:58;;;;;;;21.48;8.35;;;;;;;;;;5107209;28;20180;-67
2021/10/28 22:27:25;;;;;;;19.98;9.10;;;;;;;;;;5106361;28;20063;-67
2021/10/28 22:29:52;;;;;;;16.35;8.43;;;;;;;;;;5108867;28;20031;-68
2021/10/28 22:32:18;;;;;;;18.90;8.45;;;;;;;;;;5106267;28;20024;-68
2021/10/28 22:34:46;;;;;;;19.98;8.02;;;;;;;;;;5108698;28;20020;-68
2021/10/28 22:37:22;;;;;;;17.55;8.48;;;;;;;;;;5105812;28;20012;-69
2021/10/28 22:42:16;;;;;;;17.17;8.38;;;;;;;;;;5104833;28;20051;-68
2021/10/28 22:44:43;;;;;;;14.02;8.10;;;;;;;;;;5108668;28;20027;-68
2021/10/28 22:47:10;;;;;;;15.05;8.23;;;;;;;;;;5108596;28;20028;-67
2021/10/28 22:49:36;;;;;;;15.70;7.43;;;;;;;;;;5103215;28;20027;-69
2021/10/28 22:52:08;;;;;;;20.63;7.95;;;;;;;;;;5104493;28;20061;-68
2021/10/28 22:54:35;;;;;;;16.85;7.78;;;;;;;;;;5105464;28;20356;-67
2021/10/28 22:57:02;;;;;;;19.55;7.47;;;;;;;;;;5106339;28;20024;-68
2021/10/28 22:59:28;;;;;;;14.55;8.30;;;;;;;;;;5106090;28;20043;-69
2021/10/28 23:02:43;;;;;;;14.85;7.15;;;;;;;;;;5104768;28;20379;-68
2021/10/28 23:20:50;;;;;;;11.75;6.30;;;;;;;;;;5108223;28;20095;-67
2021/10/28 23:23:17;;;;;;;12.98;6.30;;;;;;;;;;5093923;28;20024;-66
2021/10/28 23:25:43;;;;;;;13.25;6.78;;;;;;;;;;5107933;28;20363;-67
2021/10/28 23:28:09;;;;;;;14.70;6.25;;;;;;;;;;5106237;28;20070;-67
2021/10/28 23:30:36;;;;;;;11.57;6.60;;;;;;;;;;5110275;28;20072;-67
2021/10/28 23:33:02;;;;;;;13.23;6.10;;;;;;;;;;5107452;28;20019;-67
2021/10/28 23:35:29;;;;;;;17.75;6.63;;;;;;;;;;5107132;28;20031;-68
2021/10/28 23:37:55;;;;;;;14.35;6.60;;;;;;;;;;5106671;28;20024;-67
2021/10/28 23:40:21;;;;;;;12.82;6.35;;;;;;;;;;5102404;28;20023;-67
2021/10/28 23:42:48;;;;;;;16.75;6.35;;;;;;;;;;5106319;28;20027;-67
2021/10/28 23:45:14;;;;;;;13.05;6.10;;;;;;;;;;5107225;28;20101;-67
2021/10/28 23:47:41;;;;;;;12.15;5.63;;;;;;;;;;5101570;28;20023;-67
2021/10/28 23:50:08;;;;;;;11.10;5.72;;;;;;;;;;5105367;28;20057;-67
2021/10/28 23:52:34;;;;;;;13.75;6.32;;;;;;;;;;5104979;28;20016;-67
2021/10/28 23:55:02;;;;;;;12.27;5.63;;;;;;;;;;5106800;28;20027;-68
2021/10/28 23:57:28;;;;;;;11.85;5.72;;;;;;;;;;5102729;28;20024;-68
2021/10/28 23:59:54;;;;;;;9.45;5.38;;;;;;;;;;5105512;28;20032;-67
